Weather observations for the past three days for
Midlothian/Waxahachie, Mid-Way Regional Airport
Imperial (Metric)
Date Time (cdt) Wind (mph) Vis. (mi.) Weather Sky Cond. Temperature (ºF) Relative Humidity Wind Chill (°F) Heat Index (°F) Pressure Precipitation (in)
Air Dwpt 6 hour altimeter (in) sea level (mb) 1 hr 3 hr 6 hr
Max. Min.
07 11:35 Vrbl 7 10.00 A Few Clouds FEW250 66 52.5 62% 30.11 0.0
07 11:15 NE 8 10.00 A Few Clouds FEW350 64.8 51.3 62% 30.11 0.0
07 10:55 NE 7 10.00 A Few Clouds FEW280 63.9 52.3 66% 30.11 0.0
07 10:35 NE 8 10.00 Fair CLR 63.5 52.7 68% 30.11 0.0
07 10:15 N 8 10.00 Fair CLR 62.8 52 68% 30.11 0.0
07 09:55 N 6 10.00 Fair CLR 60.1 52 75% 30.12 0.0
07 09:35 N 6 10.00 Fair CLR 59.7 52.2 76% 30.12 0.0
07 09:15 NE 7 10.00 Fair CLR 58.1 51.6 79% 30.13 0.0
07 08:55 N 5 10.00 Fair CLR 57.6 52 82% 30.12 0.0
07 08:35 Vrbl 3 10.00 Fair CLR 56.8 52.5 86% 30.13 0.0
07 08:15 N 5 9.00 Fair CLR 55.2 52.9 92% 30.14 0.0
07 07:55 Calm 10.00 Fair CLR 53.1 52.3 97% 30.13 0.0
07 07:35 Calm 9.00 Fair CLR 52 51.4 98% 30.13 0.0
07 07:15 N 3 9.00 Fair CLR 51.4 50.9 98% 30.14 0.0
07 06:55 Calm 10.00 Fair CLR 50.7 50.4 56.5 50 99% 30.14 0.0
07 06:35 Calm 9.00 Fair CLR 51.1 50.5 98% 30.13 0.0
07 06:15 N 6 10.00 Fair CLR 50.9 50.5 99% 30.11 0.0
07 05:55 NW 3 10.00 Fair CLR 50.4 49.8 98% 30.1 0.0
07 05:35 Calm 10.00 Fair CLR 50.9 50.4 98% 30.09 0.0
07 05:15 N 6 10.00 Fair CLR 51.3 50 95% 30.08 0.0
07 04:55 NE 3 10.00 Fair CLR 52.9 51.3 94% 30.06 0.0
07 04:35 NE 5 10.00 Fair CLR 52.9 51.6 96% 30.05 0.0
07 04:15 NE 5 10.00 Fair CLR 53.1 52 96% 30.05 0.0
07 03:55 N 6 10.00 Fair CLR 53.8 52.3 95% 30.05 0.0
07 03:35 NE 6 10.00 A Few Clouds FEW013 54 52.5 95% 30.04 0.0
07 03:15 NE 7 10.00 Mostly Cloudy BKN011 54.7 52.9 94% 30.05 0.0
07 02:55 NE 6 10.00 Overcast OVC010 55.2 53.2 93% 30.04 0.0
07 02:35 NE 7 10.00 Mostly Cloudy BKN010 54.9 53.2 94% 30.03 0.0
07 02:15 NE 6 10.00 Fair CLR 54.7 52.7 93% 30.02 0.0
07 01:55 NE 7 10.00 Fair CLR 55.2 52.2 90% 30.02 0.0
07 01:35 NE 7 10.00 A Few Clouds FEW260 55.4 51.8 88% 30.03 0.0
07 01:15 NE 8 10.00 A Few Clouds FEW260 55.8 51.6 86% 30.03 0.0
07 00:55 NE 7 10.00 Mostly Cloudy BKN024 56.7 52 61.2 56.7 84% 30.03 0.0
07 00:35 NE 7 10.00 Partly Cloudy SCT024 57.2 52 83% 30.03 0.0
07 00:15 NE 8 10.00 A Few Clouds FEW025 57.2 52.3 84% 30.03 0.0
06 23:55 NE 8 10.00 Mostly Cloudy BKN025 57.7 52.5 83% 30.03 0.0
06 23:35 NE 8 10.00 Overcast OVC024 57.9 53.1 84% 30.04 0.0
06 23:15 NE 10 10.00 Overcast OVC023 58.3 53.1 83% 30.04 0.0
06 22:55 Vrbl 7 10.00 Overcast SCT016 OVC022 58.5 53.8 85% 30.04 0.0
06 22:35 NE 8 10.00 Overcast OVC016 58.6 54.1 85% 30.04 0.0
06 22:15 N 9 10.00 Overcast OVC019 58.6 54.7 87% 30.04 0.0
06 21:55 NE 8 10.00 Overcast OVC024 58.3 54.9 88% 30.02 0.0
06 21:35 N 9 10.00 Overcast OVC025 58.3 54.7 88% 30.01 0.0
06 21:15 NE 7 10.00 Overcast OVC026 58.3 55 89% 30.01 0.0
06 20:55 NE 8 10.00 Overcast OVC026 58.3 54.9 88% 29.99 0.0
06 20:35 NE 6 10.00 Overcast OVC026 58.5 54.9 88% 29.98 0.0
06 20:15 NE 7 9.00 Overcast OVC025 58.3 55.6 91% 29.96 0.0
06 19:55 NE 6 8.00 Light Rain BKN024 OVC046 58.6 55.2 89% 29.96 0.0
06 19:35 NE 6 8.00 Light Rain BKN024 OVC046 59.2 55.4 87% 29.96 0.0
06 19:15 NE 5 10.00 Overcast BKN023 OVC045 60.4 54.3 80% 29.96 0.0
06 18:55 N 9 10.00 Overcast SCT023 OVC044 61.2 54 61.3 56.8 77% 29.95 0.0
06 18:35 NE 6 10.00 Overcast BKN023 OVC042 61.2 53.8 77% 29.94 0.0
06 18:15 N 9 10.00 Overcast BKN022 OVC041 61 53.4 76% 29.94 0.0
06 17:55 N 6 10.00 Overcast BKN021 OVC041 61 53.6 77% 29.94 0.0
06 17:35 N 13 10.00 Overcast BKN020 OVC037 61.2 53.4 76% 29.94 0.0
06 17:15 N 8 10.00 Overcast FEW020 OVC037 61.2 53.6 76% 29.92 0.0
06 16:55 N 8 10.00 Overcast OVC034 60.6 53.8 78% 29.93 0.0
06 16:35 N 10 10.00 Overcast OVC031 61.2 54 77% 29.92 0.0
06 16:15 N 10 10.00 Overcast OVC029 60.4 53.6 78% 29.93 0.0
06 15:55 N 10 10.00 Overcast OVC029 59.7 53.4 80% 29.93 0.0
06 15:35 N 14 10.00 Overcast OVC030 60.3 53.4 78% 29.93 0.0
06 15:15 N 9 10.00 Overcast FEW015 SCT022 OVC030 58.5 54 85% 29.95 0.0
06 14:55 N 10 8.00 Light Rain BKN014 OVC027 56.8 53.6 89% 29.95 0.0
06 14:15 N 13 10.00 Overcast OVC014 57 52.3 84% 29.96 0.0
06 13:55 NW 8 10.00 Overcast OVC014 57.9 52.9 83% 29.96 0.0
06 13:35 N 10 10.00 Overcast OVC014 57.7 52.9 84% 29.95 0.0
06 13:15 N 10 10.00 Overcast OVC013 57.6 53.2 86% 29.95 0.0
06 12:55 N 3 G 18 10.00 Overcast OVC013 57.7 52.9 59.5 54 84% 29.95 0.0
06 12:35 N 16 10.00 Overcast OVC014 58.8 53.6 83% 29.9 0.0
06 12:15 N 10 10.00 Overcast OVC014 57.4 52.9 85% 29.93 0.0
06 11:55 Vrbl 3 8.00 Overcast OVC013 57.2 52.9 86% 29.98 0.0
06 11:35 NE 8 9.00 Overcast BKN013 OVC021 56.7 52.2 85% 29.96 0.0
06 11:15 N 12 9.00 Overcast SCT013 OVC021 55.6 51.6 87% 29.93 0.0
06 10:55 N 8 7.00 Light Rain SCT016 OVC021 54.7 51.4 89% 29.96 0.0
06 10:35 NE 8 7.00 Light Rain BKN015 OVC022 54.1 50.9 89% 29.95 0.0
06 10:15 N 12 6.00 Light Rain Fog/Mist OVC014 54.1 50.9 89% 29.98 0.0
06 09:55 N 15 7.00 Overcast OVC014 54.5 49.8 84% 29.98 0.0
06 09:35 N 16 7.00 Overcast OVC016 55 50 83% 29.97 0.0
06 09:15 N 12 7.00 Overcast OVC016 55.6 49.8 81% 29.94 0.0
06 08:55 N 13 7.00 Overcast OVC016 55.6 49.8 81% 29.94 0.0
06 08:35 N 17 G 22 7.00 Overcast OVC016 55.6 50 82% 29.92 0.0
06 08:15 N 13 G 18 8.00 Overcast OVC018 56.3 49.8 79% 29.92 0.0
06 07:55 N 16 8.00 Overcast OVC016 56.5 50.5 81% 29.91 0.0
06 07:35 N 14 8.00 Overcast OVC016 56.5 50.7 81% 29.9 0.0
06 07:15 N 10 8.00 Overcast OVC016 56.5 51.1 82% 29.89 0.0
06 06:55 N 12 8.00 Overcast OVC016 56.8 51.1 65.3 56.7 81% 29.89 0.0
06 06:35 N 13 9.00 Overcast OVC016 57.2 51.1 80% 29.88 0.0
06 06:15 N 12 9.00 Overcast OVC014 57.4 51.6 81% 29.86 0.0
06 05:55 N 12 9.00 Overcast OVC012 57.4 53.1 86% 29.86 0.0
06 05:35 N 10 9.00 Overcast OVC012 57 53.6 88% 29.85 0.0
06 05:15 N 13 6.00 Light Rain Fog/Mist OVC012 57 54.1 90% 29.84 0.0
06 04:55 N 12 9.00 Overcast OVC013 58.5 55.2 89% 29.83 0.0
06 04:35 N 12 10.00 Overcast OVC015 59 55.2 87% 29.82 0.0
06 04:15 N 9 10.00 Overcast OVC015 60.3 55.2 84% 29.83 0.0
06 03:55 N 9 10.00 Overcast OVC015 62.1 55.4 79% 29.82 0.0
06 03:35 N 7 10.00 Overcast OVC016 62.2 55.6 79% 29.82 0.0
06 03:15 N 8 9.00 Overcast OVC017 62.4 55.6 78% 29.8 0.0
06 02:55 N 7 10.00 Overcast OVC018 62.8 56.7 81% 29.81 0.0
06 02:35 N 7 10.00 Overcast OVC019 63.1 57 81% 29.82 0.0
06 02:15 N 10 10.00 Overcast OVC019 63.7 57.4 80% 29.81 0.0
06 01:55 N 8 10.00 Overcast OVC021 64.2 57.7 80% 29.81 0.0
06 00:55 N 10 9.00 Overcast OVC024 65.8 59.2 80.8 65.8 79% 29.81 0.0
06 00:35 N 12 9.00 Overcast OVC025 67.1 60.1 78% 29.81 0.0
06 00:15 N 14 10.00 Overcast OVC026 68.4 60.8 77% 29.8 0.0
05 23:55 N 9 10.00 Overcast OVC027 69.6 61.7 76% 29.79 0.0
05 23:35 N 12 10.00 Overcast OVC027 70 62.1 76% 29.79 0.0
05 23:15 N 13 9.00 Overcast OVC027 70.9 61.9 73% 29.79 0.0
05 22:55 N 10 9.00 Overcast OVC026 71.8 62.6 73% 29.78 0.0
05 22:35 N 5 10.00 Overcast OVC025 72.1 62.8 73% 29.77 0.0
05 22:15 N 8 9.00 Overcast OVC025 73.4 63.3 71% 29.77 0.0
05 21:55 N 7 9.00 Mostly Cloudy BKN025 BKN032 75.6 66.4 73% 77 29.75 0.0
05 21:35 W 3 9.00 Partly Cloudy SCT033 77.7 72.1 83% 80 29.74 0.0
05 21:15 S 6 9.00 Fair CLR 78.3 72 81% 81 29.71 0.0
05 20:55 W 3 9.00 A Few Clouds FEW220 78.3 72.1 82% 81 29.71 0.0
05 20:35 Vrbl 5 9.00 Fair CLR 78.3 72.1 82% 81 29.7 0.0
05 20:15 S 9 9.00 A Few Clouds FEW210 78.8 72 80% 82 29.69 0.0
05 19:55 S 7 9.00 Partly Cloudy SCT210 79.3 72.1 79% 83 29.68 0.0
05 19:35 S 12 8.00 Fair CLR 79.9 72.1 77% 84 29.68 0.0
05 19:15 S 8 9.00 Fair CLR 80.4 72.5 77% 85 29.68 0.0
05 18:55 S 12 8.00 Fair CLR 81 72.7 87.4 81 76% 86 29.68 0.0
05 18:35 S 10 8.00 Fair CLR 81.3 72.7 75% 86 29.68 0.0
05 18:15 S 12 G 20 9.00 Fair CLR 82.8 72.9 72% 88 29.67 0.0
05 17:55 S 9 10.00 Fair CLR 83.5 73.2 71% 90 29.66 0.0
05 17:35 S 14 9.00 Fair CLR 83.8 73.2 70% 90 29.66 0.0
05 17:15 S 14 10.00 Fair CLR 85.3 72.9 66% 92 29.66 0.0
05 16:55 S 14 10.00 Fair CLR 85.8 73 66% 93 29.66 0.0
05 16:35 S 9 10.00 Fair CLR 86.9 72.9 63% 94 29.66 0.0
05 16:15 S 13 10.00 Fair CLR 87.4 72.3 61% 94 29.67 0.0
05 15:55 S 12 G 20 10.00 Fair CLR 86.7 72.7 63% 94 29.67 0.0
05 15:35 S 14 10.00 Fair CLR 87.3 72.7 62% 94 29.68 0.0
05 15:15 S 15 10.00 A Few Clouds FEW300 87.3 72.1 61% 94 29.69 0.0
05 14:55 S 15 G 23 10.00 Partly Cloudy FEW320 SCT350 85.3 71.4 63% 91 29.69 0.0
05 14:35 S 15 10.00 Partly Cloudy FEW300 SCT350 85.1 71.6 64% 91 29.69 0.0
05 14:15 S 17 10.00 Partly Cloudy FEW300 SCT360 84.7 71.2 64% 90 29.7 0.0
05 13:55 SW 13 10.00 A Few Clouds FEW250 83.7 71.2 66% 89 29.71 0.0
05 13:35 SW 15 10.00 Partly Cloudy FEW300 SCT370 83.8 71.2 66% 89 29.71 0.0
05 13:15 SW 16 10.00 Partly Cloudy FEW027 SCT360 83.5 71.1 66% 88 29.72 0.0
05 12:55 S 17 G 23 10.00 A Few Clouds FEW270 81.3 70.7 81.5 70.2 70% 85 29.72 0.0
05 12:35 S 16 10.00 Partly Cloudy FEW300 SCT360 81.1 70.9 71% 85 29.71 0.0
05 12:15 SW 17 G 23 10.00 A Few Clouds FEW340 80.4 70.2 71% 84 29.71 0.0
05 11:55 SW 20 10.00 A Few Clouds FEW260 79 69.6 73% 82 29.71 0.0
05 11:35 S 21 10.00 A Few Clouds and Breezy FEW380 79.9 70.2 72% 83 29.71 0.0
05 11:15 SW 17 10.00 Partly Cloudy FEW021 SCT380 78.6 69.6 74% 81 29.71 0.0
05 10:55 S 23 10.00 Partly Cloudy and Breezy SCT020 78.1 69.3 74% 80 29.72 0.0
05 10:35 S 21 10.00 Partly Cloudy and Breezy SCT020 75.9 68.7 78% 77 29.72 0.0
05 10:15 S 20 G 28 10.00 Mostly Cloudy SCT019 BKN026 76.3 68.9 78% 78 29.72 0.0
05 09:55 S 16 10.00 Mostly Cloudy BKN019 75.2 68.7 80% 76 29.72 0.0
05 09:35 S 16 G 22 9.00 Mostly Cloudy BKN018 74.3 68.5 82% 29.72 0.0
05 09:15 S 16 G 25 10.00 Mostly Cloudy BKN018 74.8 68.5 81% 29.71 0.0
05 08:55 S 15 G 23 10.00 Mostly Cloudy BKN017 73.9 68.5 83% 29.71 0.0
05 08:35 S 14 G 21 10.00 Mostly Cloudy BKN017 73 68.2 85% 29.71 0.0
05 08:15 S 17 10.00 Partly Cloudy SCT017 72 67.8 87% 29.71 0.0
05 07:55 S 15 9.00 Partly Cloudy SCT019 70.9 67.5 89% 29.69 0.0
05 07:35 S 14 10.00 Partly Cloudy SCT019 SCT024 70.5 67.5 90% 29.69 0.0
05 07:15 S 13 8.00 Mostly Cloudy BKN019 70.2 67.1 90% 29.68 0.0
05 06:55 S 15 9.00 Overcast OVC018 70.3 67.3 71.4 69.4 90% 29.68 0.0
05 06:35 S 15 G 24 9.00 Overcast OVC018 70.3 66.9 89% 29.68 0.0
05 06:15 S 17 10.00 Overcast OVC017 70.2 67.1 90% 29.68 0.0
05 05:55 S 13 10.00 Overcast OVC016 70 66.9 90% 29.67 0.0
05 05:15 S 14 10.00 Mostly Cloudy BKN017 BKN024 69.8 66.7 90% 29.68 0.0
05 04:55 S 10 G 20 10.00 Overcast OVC017 70 66.9 90% 29.68 0.0
05 04:35 S 12 G 21 10.00 Overcast BKN015 OVC023 70 66.9 90% 29.69 0.0
05 04:15 S 12 G 20 10.00 Overcast OVC016 70 66.9 90% 29.69 0.0
05 03:55 S 14 10.00 Overcast BKN015 OVC023 69.8 66.7 90% 29.68 0.0
05 03:35 S 17 G 23 10.00 Overcast BKN015 OVC023 70 66.7 90% 29.68 0.0
05 03:15 S 14 G 24 10.00 Overcast BKN015 OVC023 69.8 66.7 90% 29.69 0.0
05 02:55 S 14 G 24 10.00 Mostly Cloudy BKN015 69.6 66.6 90% 29.7 0.0
05 02:35 S 12 10.00 Partly Cloudy SCT015 69.6 66.6 90% 29.71 0.0
05 02:15 S 15 G 22 10.00 A Few Clouds FEW017 69.8 66.4 89% 29.72 0.0
05 01:55 S 14 G 21 10.00 Fair CLR 70.3 66.2 87% 29.73 0.0
05 01:35 S 13 G 21 10.00 Fair CLR 70.7 66.2 86% 29.73 0.0
05 01:15 S 14 G 21 10.00 Fair CLR 71.1 66.2 85% 29.73 0.0
05 00:55 S 12 G 23 10.00 Fair CLR 71.4 66 76.6 71.2 83% 29.73 0.0
05 00:35 S 12 G 20 10.00 Fair CLR 71.6 65.8 82% 29.74 0.0
05 00:15 S 13 10.00 Fair CLR 71.8 65.5 81% 29.74 0.0
04 23:55 S 15 G 23 10.00 Fair CLR 72 65.1 79% 29.74 0.0
04 23:35 S 14 10.00 Fair CLR 72.3 65.1 78% 29.74 0.0
04 23:15 S 13 10.00 A Few Clouds FEW240 72.1 64.9 78% 29.75 0.0
04 22:55 S 12 10.00 Partly Cloudy FEW190 SCT230 72 64.9 79% 29.74 0.0
04 22:35 S 10 10.00 Overcast BKN190 OVC220 72.3 64.8 77% 29.74 0.0
04 22:15 S 9 10.00 Mostly Cloudy BKN200 BKN230 72.3 64.9 78% 29.75 0.0
04 21:55 S 9 10.00 Partly Cloudy SCT210 SCT230 72.3 64.6 77% 29.74 0.0
04 21:35 S 9 10.00 A Few Clouds FEW230 72.5 64.6 76% 29.74 0.0
04 21:15 S 8 10.00 Fair CLR 73 64.4 74% 29.74 0.0
04 20:55 S 8 10.00 A Few Clouds FEW250 73.6 64.2 73% 29.73 0.0
04 20:35 S 10 10.00 A Few Clouds FEW230 73.9 64.2 72% 29.73 0.0
04 20:15 S 9 10.00 A Few Clouds FEW220 74.5 64 70% 29.73 0.0
04 19:55 S 10 10.00 Fair CLR 75.2 63.9 68% 77 29.73 0.0
04 19:35 S 14 G 20 10.00 Fair CLR 75.7 63.9 67% 78 29.74 0.0
04 19:15 S 16 G 24 9.00 Fair CLR 76.5 63.3 64% 78 29.75 0.0
04 18:55 S 20 G 29 10.00 Fair CLR 77 63.3 81.1 76.3 63% 79 29.75 0.0
04 18:35 S 18 G 25 10.00 Fair CLR 77.4 63.5 62% 79 29.75 0.0
04 18:15 S 17 G 24 10.00 Fair CLR 77.7 63.9 62% 79 29.75 0.0
04 17:55 S 20 G 29 10.00 A Few Clouds FEW040 78.3 63.3 60% 80 29.76 0.0
04 17:35 S 17 G 29 10.00 A Few Clouds FEW040 78.8 63.3 59% 80 29.76 0.0
04 17:15 S 20 G 28 10.00 A Few Clouds FEW040 78.1 63 60% 80 29.76 0.0
04 16:55 S 23 G 30 10.00 Fair and Breezy CLR 78.8 63.5 60% 80 29.77 0.0
04 16:35 S 16 G 24 10.00 Fair CLR 79.5 63.3 58% 81 29.78 0.0
04 16:15 S 21 G 29 10.00 Fair and Breezy CLR 80.2 63.1 56% 82 29.79 0.0
04 15:55 S 16 G 25 10.00 A Few Clouds FEW040 79.5 63.3 58% 81 29.8 0.0
04 15:35 S 17 10.00 A Few Clouds FEW041 79.7 63 57% 81 29.81 0.0
04 15:15 S 21 G 28 10.00 A Few Clouds and Breezy FEW041 79.2 63.1 58% 81 29.82 0.0
04 14:55 S 15 10.00 A Few Clouds FEW041 79 62.8 58% 80 29.84 0.0
04 14:35 S 17 G 25 10.00 A Few Clouds FEW360 79.5 62.8 57% 81 29.84 0.0
04 14:15 S 16 G 24 10.00 Fair CLR 78.6 62.1 57% 80 29.85 0.0
04 13:55 S 17 G 24 10.00 A Few Clouds FEW360 78.6 61.2 55% 80 29.86 0.0
04 13:35 S 16 G 25 10.00 A Few Clouds FEW350 77.2 60.8 57% 79 29.86 0.0
04 13:15 S 16 G 28 10.00 A Few Clouds FEW340 77.4 60.6 56% 79 29.88 0.0
04 12:55 S 15 G 24 10.00 Fair CLR 76.3 59.5 77 59.2 56% 78 29.88 0.0
04 12:35 S 18 10.00 Fair CLR 75.9 58.8 56% 78 29.89 0.0
04 12:15 S 21 10.00 Fair and Breezy CLR 75.2 58.6 57% 78 29.9 0.0
04 11:55 S 16 G 25 10.00 Fair CLR 75 58.8 57% 77 29.92 0.0
Date Time (cdt) Wind (mph) Vis. (mi.) Weather Sky Cond. Air Dwpt Max. Min. Relative Humidity Wind Chill (°F) Heat Index (°F) altimeter (in) sea level (mb) 1 hr 3 hr 6 hr
6 hour
Temperature (ºF) Pressure Precipitation (in)